createdAt,value
2018-07-10T00:05:09.571Z,33.90
2018-07-10T00:12:24.571Z,34.50
2018-07-10T00:17:27.697Z,34.80
2018-07-10T00:22:33.801Z,34.40
2018-07-10T00:27:36.973Z,34.20
2018-07-10T00:32:40.433Z,34.80
2018-07-10T00:39:52.216Z,34.50
2018-07-10T00:44:55.301Z,34.00
2018-07-10T00:49:58.439Z,34.50
2018-07-10T00:55:02.059Z,34.00
2018-07-10T01:00:05.758Z,34.10
2018-07-10T01:05:08.990Z,34.50
2018-07-10T01:10:12.061Z,34.30
2018-07-10T01:15:15.206Z,34.10
2018-07-10T01:20:19.301Z,34.00
2018-07-10T01:25:22.954Z,34.00
2018-07-10T01:30:26.145Z,34.00
2018-07-10T01:35:29.237Z,34.00
2018-07-10T01:40:32.369Z,34.00
2018-07-10T01:45:35.665Z,34.00
2018-07-10T01:50:38.789Z,34.00
2018-07-10T01:55:42.630Z,34.10
2018-07-10T02:00:45.954Z,34.10
2018-07-10T02:10:51.981Z,34.40
2018-07-10T02:15:55.096Z,34.10
2018-07-10T02:26:05.045Z,34.00
2018-07-10T02:31:08.126Z,34.30
2018-07-10T02:36:11.199Z,34.30
2018-07-10T02:41:16.038Z,34.30
2018-07-10T02:46:19.083Z,34.30
2018-07-10T02:51:25.409Z,34.40
2018-07-10T02:56:29.172Z,34.40
2018-07-10T03:01:32.815Z,34.20
2018-07-10T03:06:36.000Z,34.50
2018-07-10T03:11:39.133Z,34.00
2018-07-10T03:16:42.205Z,34.50
2018-07-10T03:21:45.335Z,34.50
2018-07-10T03:26:48.436Z,34.70
2018-07-10T03:31:51.544Z,34.70
2018-07-10T03:36:55.101Z,34.70
2018-07-10T03:41:58.696Z,34.80
2018-07-10T03:47:02.101Z,34.80
2018-07-10T03:57:08.062Z,34.20
2018-07-10T04:02:11.207Z,35.30
2018-07-10T04:07:14.380Z,34.90
2018-07-10T04:12:17.390Z,34.60
2018-07-10T04:17:24.509Z,35.20
2018-07-10T04:22:27.646Z,35.80
2018-07-10T04:27:35.166Z,36.60
2018-07-10T04:37:46.700Z,36.30
2018-07-10T04:47:58.637Z,36.60
2018-07-10T04:53:08.813Z,37.10
2018-07-10T05:03:30.313Z,37.90
2018-07-10T05:08:33.555Z,38.30
2018-07-10T05:13:36.669Z,38.60
2018-07-10T05:18:39.788Z,37.70
2018-07-10T05:23:43.489Z,36.90
2018-07-10T05:28:50.188Z,37.60
2018-07-10T05:33:53.194Z,37.50
2018-07-10T05:39:00.601Z,37.70
2018-07-10T05:44:03.704Z,37.30
2018-07-10T05:49:07.229Z,37.30
2018-07-10T05:54:10.326Z,37.30
2018-07-10T05:59:13.753Z,37.60
2018-07-10T06:04:17.969Z,37.00
2018-07-10T06:09:21.078Z,36.90
2018-07-10T06:14:24.186Z,37.10
2018-07-10T06:19:27.269Z,37.10
2018-07-10T06:24:30.590Z,38.00
2018-07-10T06:29:45.182Z,38.60
2018-07-10T06:34:49.546Z,38.00
2018-07-10T06:39:54.045Z,38.40
2018-07-10T06:45:02.844Z,37.80
2018-07-10T06:55:12.574Z,37.90
2018-07-10T07:00:15.685Z,37.90
2018-07-10T07:05:18.785Z,38.00
2018-07-10T07:10:21.941Z,39.00
2018-07-10T07:15:25.030Z,38.70
2018-07-10T07:20:28.143Z,38.70
2018-07-10T07:25:31.334Z,38.50
2018-07-10T07:30:34.552Z,38.30
2018-07-10T07:35:37.641Z,38.30
2018-07-10T07:40:40.718Z,39.70
2018-07-10T07:45:43.777Z,39.40
2018-07-10T07:50:46.914Z,39.50
2018-07-10T07:55:50.056Z,38.70
2018-07-10T08:00:53.190Z,38.00
2018-07-10T08:05:56.269Z,38.40
2018-07-10T08:10:59.351Z,38.70
2018-07-10T08:21:05.449Z,39.60
2018-07-10T08:26:08.449Z,39.60
2018-07-10T08:41:20.877Z,40.20
2018-07-10T08:51:29.757Z,39.70
2018-07-10T09:01:35.761Z,38.70
2018-07-10T09:06:38.869Z,38.50
2018-07-10T09:11:42.983Z,38.50
2018-07-10T09:16:46.473Z,38.50
2018-07-10T09:21:53.925Z,38.60
2018-07-10T09:31:59.910Z,40.80
2018-07-10T09:42:06.214Z,42.40
2018-07-10T09:47:09.252Z,41.00
2018-07-10T10:02:23.685Z,40.50
2018-07-10T10:07:26.941Z,39.50
2018-07-10T10:12:30.389Z,39.40
2018-07-10T10:17:33.450Z,39.30
2018-07-10T10:22:37.033Z,39.90
2018-07-10T10:27:41.499Z,42.00
2018-07-10T10:37:48.091Z,40.80
2018-07-10T10:42:51.541Z,40.60
2018-07-10T10:47:54.779Z,40.60
2018-07-10T10:52:57.802Z,41.00
2018-07-10T10:58:01.373Z,41.50
2018-07-10T11:03:04.413Z,41.10
2018-07-10T11:08:07.941Z,40.70
2018-07-10T11:13:12.477Z,40.70
2018-07-10T11:18:41.527Z,40.70
2018-07-10T11:23:50.449Z,40.60
2018-07-10T11:28:53.923Z,40.40
2018-07-10T11:39:04.817Z,43.40
2018-07-10T11:44:08.767Z,42.30
2018-07-10T11:49:11.905Z,41.20
2018-07-10T11:54:15.043Z,40.50
2018-07-10T11:59:18.085Z,40.50
2018-07-10T12:04:21.231Z,40.20
2018-07-10T12:09:24.362Z,40.10
2018-07-10T12:14:27.509Z,39.90
2018-07-10T12:19:30.542Z,39.80
2018-07-10T12:24:33.633Z,40.30
2018-07-10T12:34:39.649Z,40.40
2018-07-10T12:44:45.812Z,42.80
2018-07-10T12:49:48.973Z,42.90
2018-07-10T12:54:52.537Z,43.40
2018-07-10T12:59:55.573Z,40.80
2018-07-10T13:04:58.865Z,41.30
2018-07-10T13:10:02.247Z,40.20
2018-07-10T13:15:05.303Z,39.60
2018-07-10T13:20:11.330Z,38.40
2018-07-10T13:25:14.373Z,38.90
2018-07-10T13:30:17.492Z,38.60
2018-07-10T13:35:20.586Z,38.30
2018-07-10T13:40:23.705Z,38.90
2018-07-10T13:45:27.862Z,39.50
2018-07-10T13:50:32.238Z,39.90
2018-07-10T13:55:35.318Z,39.10
2018-07-10T14:00:41.260Z,38.90
2018-07-10T14:10:53.803Z,38.10
2018-07-10T14:15:57.003Z,37.90
2018-07-10T14:21:06.633Z,37.90
2018-07-10T14:26:09.683Z,37.80
2018-07-10T14:31:12.813Z,37.70
2018-07-10T14:36:15.850Z,37.50
2018-07-10T14:41:18.975Z,37.30
2018-07-10T14:46:23.475Z,37.40
2018-07-10T14:51:35.715Z,37.20
2018-07-10T14:56:38.934Z,37.30
2018-07-10T15:01:42.227Z,37.80
2018-07-10T15:06:45.357Z,38.70
2018-07-10T15:11:48.509Z,39.30
2018-07-10T15:16:56.952Z,38.90
2018-07-10T15:22:00.032Z,39.40
2018-07-10T15:27:03.160Z,39.30
2018-07-10T15:32:06.215Z,39.40
2018-07-10T15:37:09.344Z,39.00
2018-07-10T15:42:12.460Z,38.60
2018-07-10T15:47:15.511Z,38.30
2018-07-10T15:52:18.906Z,38.20
2018-07-10T15:57:21.955Z,37.10
2018-07-10T16:22:37.285Z,37.00
2018-07-10T16:37:48.292Z,37.70
2018-07-10T17:08:13.229Z,37.20
2018-07-10T17:18:19.616Z,37.10
2018-07-10T17:33:28.542Z,37.30
2018-07-10T17:53:40.342Z,37.60
2018-07-10T18:03:46.374Z,37.50
2018-07-10T18:29:01.057Z,37.00
2018-07-10T18:44:10.339Z,37.10
2018-07-10T18:49:13.483Z,37.20
2018-07-10T19:09:33.373Z,37.80
2018-07-10T19:14:36.590Z,38.00
2018-07-10T19:19:42.929Z,38.10
2018-07-10T19:24:46.481Z,38.10
2018-07-10T19:39:59.129Z,38.10
2018-07-10T19:45:03.148Z,38.00
2018-07-10T19:50:11.888Z,38.00
2018-07-10T19:55:14.997Z,38.00
2018-07-10T20:00:18.520Z,38.00
2018-07-10T20:05:21.563Z,39.30
2018-07-10T20:10:35.037Z,40.50
2018-07-10T20:31:04.365Z,41.60
2018-07-10T20:46:14.427Z,41.70
2018-07-10T21:27:09.139Z,40.80
2018-07-10T21:32:25.756Z,40.80
2018-07-10T21:43:44.706Z,40.90
2018-07-10T21:48:56.685Z,41.50
2018-07-10T21:53:59.794Z,41.00
2018-07-10T21:59:02.882Z,40.90
2018-07-10T22:04:06.068Z,41.00
2018-07-10T22:09:09.803Z,41.60
2018-07-10T22:14:12.918Z,41.60
2018-07-10T22:19:18.804Z,41.30
2018-07-10T22:24:22.885Z,41.60
2018-07-10T22:44:42.323Z,44.60
2018-07-10T22:49:45.933Z,43.40
2018-07-10T22:54:49.139Z,43.90
2018-07-10T22:59:52.281Z,43.30
2018-07-10T23:04:55.379Z,43.00
2018-07-10T23:09:58.436Z,42.80
2018-07-10T23:15:01.556Z,42.90
2018-07-10T23:20:04.653Z,43.10
2018-07-10T23:25:07.783Z,43.20
2018-07-10T23:30:10.918Z,42.90
2018-07-10T23:40:16.873Z,43.00
2018-07-10T23:45:23.626Z,42.90
2018-07-10T23:50:29.185Z,42.90
